Time;durP1;ratioP1;P1;durP2;ratioP2;P2;SDS_P1;SDS_P2;PMS_P1;PMS_P2;Temp;Humidity;BMP_temperature;BMP_pressure;BME280_temperature;BME280_humidity;BME280_pressure;Samples;Min_cycle;Max_cycle;Signal;HPM_P1;HPM_P2
2021/08/07 00:01:48;;;;;;;21.50;6.78;;;;;;;9.74;82.65;98042.65;2188919;81;20953;-57
2021/08/07 00:04:48;;;;;;;30.90;10.25;;;;;;;9.71;82.21;98041.08;2210511;81;20961;-61
2021/08/07 00:07:49;;;;;;;38.98;13.58;;;;;;;9.63;82.38;98039.00;2210463;81;21028;-59
2021/08/07 00:10:49;;;;;;;51.50;18.35;;;;;;;9.58;82.50;98039.78;2210366;81;21543;-60
2021/08/07 00:13:50;;;;;;;36.58;13.85;;;;;;;9.55;82.62;98034.77;2210244;81;21496;-60
2021/08/07 00:16:51;;;;;;;25.48;8.20;;;;;;;9.53;82.55;98036.18;2210152;81;21067;-58
2021/08/07 00:19:51;;;;;;;24.20;7.42;;;;;;;9.52;82.43;98036.29;2210577;81;20961;-58
2021/08/07 00:22:51;;;;;;;23.80;7.30;;;;;;;9.50;82.27;98036.88;2210580;81;21025;-59
2021/08/07 00:25:52;;;;;;;19.80;5.75;;;;;;;9.49;82.74;98039.95;2210361;81;21032;-59
2021/08/07 00:28:52;;;;;;;19.40;5.42;;;;;;;9.45;82.49;98041.13;2216867;80;21499;-58
2021/08/07 00:31:53;;;;;;;20.57;5.70;;;;;;;9.44;82.84;98048.61;2220676;80;21491;-59
2021/08/07 00:34:53;;;;;;;26.52;8.85;;;;;;;9.41;82.32;98049.28;2220551;80;20996;-58
2021/08/07 00:37:54;;;;;;;29.07;9.20;;;;;;;9.29;82.37;98048.34;2220704;80;21028;-57
2021/08/07 00:40:54;;;;;;;28.23;8.98;;;;;;;9.22;82.54;98052.31;2220815;80;21036;-58
2021/08/07 00:43:55;;;;;;;31.97;11.22;;;;;;;9.21;82.73;98055.42;2220883;80;20976;-58
2021/08/07 00:46:55;;;;;;;32.23;11.12;;;;;;;9.15;83.03;98055.36;2220860;80;20937;-58
2021/08/07 00:49:55;;;;;;;26.33;8.58;;;;;;;9.16;83.27;98051.78;2220716;80;20988;-59
2021/08/07 00:52:56;;;;;;;24.32;7.40;;;;;;;9.18;83.30;98045.98;2220648;80;20999;-57
2021/08/07 00:55:56;;;;;;;20.02;5.60;;;;;;;9.22;83.08;98047.08;2220532;80;20960;-58
2021/08/07 00:58:57;;;;;;;19.67;5.87;;;;;;;9.16;82.94;98044.41;2220666;80;21550;-57
2021/08/07 01:01:58;;;;;;;20.95;6.22;;;;;;;9.15;83.26;98050.58;2220625;80;21000;-59
2021/08/07 01:04:58;;;;;;;20.10;6.08;;;;;;;9.15;83.37;98054.50;2220588;80;21062;-58
2021/08/07 01:07:59;;;;;;;27.50;11.05;;;;;;;9.10;83.42;98054.81;2220627;80;21486;-62
2021/08/07 01:10:59;;;;;;;24.52;9.28;;;;;;;9.09;83.26;98057.54;2220741;80;20980;-58
2021/08/07 01:14:00;;;;;;;22.60;6.67;;;;;;;9.03;83.30;98061.40;2220802;80;21040;-58
2021/08/07 01:17:00;;;;;;;52.17;16.27;;;;;;;8.99;82.99;98070.39;2220649;80;20937;-58
2021/08/07 01:20:00;;;;;;;49.83;15.93;;;;;;;8.94;83.12;98064.64;2220908;80;21008;-58
2021/08/07 01:23:01;;;;;;;32.45;9.58;;;;;;;8.92;83.31;98068.67;2220796;80;20965;-58
2021/08/07 01:26:01;;;;;;;29.50;9.70;;;;;;;8.97;83.63;98065.74;2220581;80;20936;-57
2021/08/07 01:29:02;;;;;;;20.92;6.62;;;;;;;8.94;83.16;98066.78;2214206;80;20996;-59
2021/08/07 01:32:02;;;;;;;20.88;5.42;;;;;;;8.88;83.40;98063.72;2210242;81;21016;-58
2021/08/07 01:35:05;;;;;;;;;;;;;;;8.85;83.25;98071.32;2212686;81;21016;-58
2021/08/07 01:38:05;;;;;;;25.65;9.20;;;;;;;8.75;83.30;98065.00;2210123;80;20108;-59
2021/08/07 01:41:06;;;;;;;27.37;9.78;;;;;;;8.71;83.53;98068.78;2210505;81;20973;-57
2021/08/07 01:44:07;;;;;;;27.60;8.80;;;;;;;8.70;83.76;98068.40;2210206;81;21091;-58
2021/08/07 01:47:07;;;;;;;21.17;5.83;;;;;;;8.67;83.65;98066.81;2210315;81;21496;-59
2021/08/07 01:50:08;;;;;;;18.75;5.08;;;;;;;8.65;83.30;98070.84;2210368;81;21056;-59
2021/08/07 01:53:08;;;;;;;20.10;5.60;;;;;;;8.65;83.19;98073.94;2210468;81;21037;-58
2021/08/07 01:56:09;;;;;;;19.10;5.20;;;;;;;8.57;83.28;98069.19;2210378;81;20957;-59
2021/08/07 01:59:09;;;;;;;17.30;4.35;;;;;;;8.46;83.30;98072.51;2210322;81;21136;-58
2021/08/07 02:02:10;;;;;;;18.62;5.30;;;;;;;8.40;83.34;98075.46;2210430;81;21008;-58
2021/08/07 02:05:10;;;;;;;17.15;4.50;;;;;;;8.36;83.24;98071.84;2209843;81;21013;-58
2021/08/07 02:08:11;;;;;;;15.30;4.60;;;;;;;8.31;83.32;98069.53;2210311;81;21456;-59
2021/08/07 02:11:11;;;;;;;18.82;5.30;;;;;;;8.24;83.50;98066.94;2210187;81;20973;-58
2021/08/07 02:14:11;;;;;;;17.35;4.42;;;;;;;8.22;83.46;98067.03;2210140;81;21032;-58
2021/08/07 02:17:12;;;;;;;18.48;5.10;;;;;;;8.20;83.56;98069.38;2210028;81;21028;-57
2021/08/07 02:20:13;;;;;;;21.87;5.85;;;;;;;8.18;83.71;98073.39;2210384;81;20983;-57
2021/08/07 02:23:13;;;;;;;19.23;5.10;;;;;;;8.17;83.80;98074.31;2210345;81;20981;-57
2021/08/07 02:26:14;;;;;;;19.40;5.03;;;;;;;8.15;83.62;98070.98;2210372;81;21004;-58
2021/08/07 02:29:14;;;;;;;20.48;5.75;;;;;;;8.13;83.76;98074.99;2216421;80;21028;-57
2021/08/07 02:32:15;;;;;;;26.33;7.20;;;;;;;8.16;83.71;98067.44;2220130;80;21536;-59
2021/08/07 02:35:16;;;;;;;24.45;8.33;;;;;;;8.17;83.87;98072.18;2220796;80;21003;-58
2021/08/07 02:38:16;;;;;;;25.80;7.53;;;;;;;8.23;83.98;98079.63;2220712;80;21014;-58
2021/08/07 02:41:17;;;;;;;22.40;6.75;;;;;;;8.24;83.79;98088.66;2220396;80;21098;-58
2021/08/07 02:44:17;;;;;;;22.90;6.33;;;;;;;8.22;83.84;98084.50;2220597;80;20933;-57
2021/08/07 02:47:18;;;;;;;20.92;5.45;;;;;;;8.23;84.13;98086.16;2220572;80;20973;-58
2021/08/07 02:50:19;;;;;;;17.48;4.60;;;;;;;8.30;84.38;98088.30;2220580;80;21503;-58
2021/08/07 02:53:19;;;;;;;18.00;5.20;;;;;;;8.36;84.27;98091.44;2220691;80;21055;-57
2021/08/07 02:56:20;;;;;;;19.30;5.17;;;;;;;8.36;84.06;98092.30;2220607;80;21016;-57
2021/08/07 02:59:24;;;;;;;17.00;4.42;;;;;;;8.35;84.15;98093.23;2189657;80;21538;-58
2021/08/07 03:02:25;;;;;;;20.90;4.90;;;;;;;8.35;83.74;98102.82;2220622;80;20977;-58
2021/08/07 03:05:25;;;;;;;23.05;5.30;;;;;;;8.32;83.85;98096.87;2220541;80;21491;-58
2021/08/07 03:08:25;;;;;;;17.17;4.75;;;;;;;8.31;83.76;98100.89;2220557;80;21436;-58
2021/08/07 03:11:26;;;;;;;18.15;5.22;;;;;;;8.30;83.85;98096.59;2220225;80;21020;-58
2021/08/07 03:14:27;;;;;;;24.57;6.53;;;;;;;8.31;84.03;98095.66;2220559;80;21007;-58
2021/08/07 03:17:28;;;;;;;24.35;7.40;;;;;;;8.39;84.07;98102.55;2220212;80;21015;-58
2021/08/07 03:23:30;;;;;;;23.83;6.50;;;;;;;8.41;83.91;98102.45;2190240;80;20984;-57
2021/08/07 03:26:31;;;;;;;25.02;6.75;;;;;;;8.36;83.44;98107.98;2220623;80;20977;-57
2021/08/07 03:29:31;;;;;;;25.75;6.72;;;;;;;8.33;83.51;98106.39;2214143;80;21013;-60
2021/08/07 03:32:32;;;;;;;24.87;7.05;;;;;;;8.33;83.60;98106.39;2210510;81;21000;-57
2021/08/07 03:35:32;;;;;;;23.70;6.20;;;;;;;8.32;83.69;98102.09;2210254;81;21012;-57
2021/08/07 03:38:33;;;;;;;17.35;4.42;;;;;;;8.32;83.74;98104.70;2210141;81;20961;-58
2021/08/07 03:41:33;;;;;;;19.15;5.45;;;;;;;8.33;84.01;98105.09;2210255;81;20929;-58
2021/08/07 03:44:34;;;;;;;29.52;11.38;;;;;;;8.38;84.04;98102.66;2210260;81;21460;-58
2021/08/07 03:47:34;;;;;;;28.80;9.80;;;;;;;8.44;84.10;98104.42;2210297;81;20945;-57
2021/08/07 03:50:34;;;;;;;29.77;8.88;;;;;;;8.54;84.03;98098.14;2210402;81;20945;-57
2021/08/07 03:53:35;;;;;;;32.28;11.40;;;;;;;8.66;84.08;98101.73;2210404;81;20989;-57
2021/08/07 03:56:36;;;;;;;31.73;10.25;;;;;;;8.77;84.02;98105.80;2210479;81;20969;-58
2021/08/07 03:59:36;;;;;;;26.50;7.67;;;;;;;8.90;83.89;98106.32;2210301;80;21005;-57
2021/08/07 04:02:37;;;;;;;24.30;7.70;;;;;;;9.05;83.86;98109.69;2210166;81;21035;-57
2021/08/07 04:05:37;;;;;;;16.42;4.90;;;;;;;9.15;83.54;98105.52;2210220;81;21641;-57
2021/08/07 04:08:38;;;;;;;24.05;7.70;;;;;;;9.26;83.59;98097.80;2210127;81;21503;-57
2021/08/07 04:11:39;;;;;;;17.15;4.40;;;;;;;9.43;83.95;98100.58;2209775;81;21009;-57
2021/08/07 04:14:40;;;;;;;18.15;5.20;;;;;;;9.58;83.76;98105.23;2209932;81;21555;-57
2021/08/07 04:17:40;;;;;;;19.12;6.30;;;;;;;9.69;83.79;98101.89;2209921;81;20985;-58
2021/08/07 04:20:41;;;;;;;19.23;5.95;;;;;;;9.82;83.77;98099.27;2210189;81;21437;-58
2021/08/07 04:23:41;;;;;;;22.95;5.85;;;;;;;10.00;83.60;98101.09;2210150;81;20961;-58
2021/08/07 04:26:41;;;;;;;19.77;5.37;;;;;;;10.20;83.40;98106.20;2210067;81;21004;-59
2021/08/07 04:29:42;;;;;;;17.00;5.08;;;;;;;10.45;83.26;98107.12;2215899;80;20977;-58
2021/08/07 04:32:42;;;;;;;18.60;5.25;;;;;;;10.68;82.96;98106.29;2220498;80;21015;-58
2021/08/07 04:35:43;;;;;;;25.17;7.78;;;;;;;10.93;82.62;98104.48;2220451;80;20941;-57
2021/08/07 04:38:44;;;;;;;22.98;7.90;;;;;;;11.03;82.54;98106.81;2220710;80;21011;-58
2021/08/07 04:41:44;;;;;;;22.52;7.67;;;;;;;11.15;82.50;98108.13;2220931;80;20972;-58
2021/08/07 04:44:45;;;;;;;19.98;6.28;;;;;;;11.29;82.57;98105.80;2220562;80;20976;-58
2021/08/07 04:47:45;;;;;;;19.90;5.50;;;;;;;11.45;82.55;98102.38;2220645;80;20976;-57
2021/08/07 04:50:45;;;;;;;18.90;5.83;;;;;;;11.70;82.65;98106.58;2220715;80;21439;-58
2021/08/07 04:53:46;;;;;;;18.87;5.78;;;;;;;12.00;82.86;98108.30;2220639;80;21067;-58
2021/08/07 04:56:46;;;;;;;18.05;5.20;;;;;;;12.30;82.48;98102.41;2220583;80;21054;-57
2021/08/07 04:59:47;;;;;;;16.93;5.25;;;;;;;12.50;82.36;98099.51;2220658;80;21048;-60
2021/08/07 05:02:47;;;;;;;21.30;5.50;;;;;;;12.76;82.61;98100.51;2220699;80;21017;-58
2021/08/07 05:05:48;;;;;;;18.30;5.62;;;;;;;13.09;82.48;98100.02;2220683;80;21467;-57
2021/08/07 05:08:49;;;;;;;20.27;6.33;;;;;;;13.40;82.41;98105.37;2220674;80;20992;-58
2021/08/07 05:11:49;;;;;;;20.45;6.78;;;;;;;13.74;82.05;98108.61;2220756;80;20988;-58
2021/08/07 05:14:50;;;;;;;20.20;6.28;;;;;;;14.08;81.80;98116.27;2220646;80;20973;-58
2021/08/07 05:17:53;;;;;;;20.20;6.67;;;;;;;14.33;81.67;98107.03;2220414;80;21079;-58
2021/08/07 05:20:53;;;;;;;23.10;7.40;;;;;;;14.61;81.46;98116.95;2190669;80;21463;-58
2021/08/07 05:23:53;;;;;;;24.87;7.55;;;;;;;14.87;81.35;98119.45;2220925;80;20980;-58
2021/08/07 05:26:54;;;;;;;25.37;8.90;;;;;;;15.13;81.11;98117.58;2220782;80;20992;-58
2021/08/07 05:29:54;;;;;;;24.52;8.58;;;;;;;15.42;81.12;98120.17;2214728;80;21020;-58
2021/08/07 05:32:55;;;;;;;24.30;8.63;;;;;;;15.58;79.90;98122.23;2210243;81;21563;-61
2021/08/07 05:35:55;;;;;;;26.27;8.93;;;;;;;15.72;79.80;98117.48;2210365;81;21491;-58
2021/08/07 05:38:56;;;;;;;23.87;9.08;;;;;;;15.85;79.69;98118.52;2210270;81;21540;-58
2021/08/07 05:41:56;;;;;;;22.62;8.28;;;;;;;16.05;79.85;98117.97;2210271;81;20991;-58
2021/08/07 05:44:57;;;;;;;22.00;8.03;;;;;;;16.31;79.86;98118.11;2210330;81;21076;-60
2021/08/07 05:47:57;;;;;;;26.05;8.30;;;;;;;16.55;79.73;98119.36;2210584;81;20961;-63
2021/08/07 05:50:58;;;;;;;25.15;7.50;;;;;;;16.85;79.24;98115.55;2210325;81;21064;-61
2021/08/07 05:53:58;;;;;;;20.88;7.47;;;;;;;16.88;77.83;98113.10;2210441;81;21052;-65
2021/08/07 05:56:59;;;;;;;25.68;6.85;;;;;;;16.94;75.79;98123.94;2210213;81;20977;-60
2021/08/07 05:59:59;;;;;;;20.88;6.90;;;;;;;16.95;76.57;98132.70;2210362;81;21001;-64
2021/08/07 06:03:01;;;;;;;21.93;6.55;;;;;;;17.06;77.12;98137.78;2210262;81;21428;-61
2021/08/07 06:06:01;;;;;;;22.48;6.95;;;;;;;17.09;77.16;98139.30;2210482;81;20980;-62
2021/08/07 06:09:02;;;;;;;19.62;6.17;;;;;;;16.98;75.72;98142.99;2210564;81;20937;-67
2021/08/07 06:12:02;;;;;;;18.92;6.15;;;;;;;16.92;77.29;98143.13;2210180;81;21016;-59
2021/08/07 06:15:03;;;;;;;21.20;6.80;;;;;;;17.09;76.42;98141.45;2210040;81;21016;-66
2021/08/07 06:18:03;;;;;;;19.95;6.78;;;;;;;17.13;75.89;98138.84;2210548;81;20969;-69
2021/08/07 06:21:04;;;;;;;20.90;6.45;;;;;;;17.21;76.39;98143.87;2210137;81;20942;-65
2021/08/07 06:24:04;;;;;;;18.75;6.10;;;;;;;17.41;75.71;98148.50;2210330;81;21045;-69
2021/08/07 06:27:04;;;;;;;19.98;6.78;;;;;;;17.60;76.25;98150.16;2210153;81;21433;-68
2021/08/07 06:30:05;;;;;;;18.73;5.85;;;;;;;17.69;75.24;98151.88;2210316;80;20965;-62
2021/08/07 06:33:05;;;;;;;18.40;5.80;;;;;;;17.90;75.72;98153.31;2210443;81;20961;-63
2021/08/07 06:36:06;;;;;;;17.35;6.12;;;;;;;18.15;74.68;98149.02;2210530;81;21008;-66
2021/08/07 06:39:06;;;;;;;18.37;5.80;;;;;;;18.24;75.78;98156.02;2210243;81;21032;-66
2021/08/07 06:42:07;;;;;;;18.73;6.30;;;;;;;18.46;76.19;98152.45;2210325;81;21020;-64
2021/08/07 06:45:07;;;;;;;17.50;5.72;;;;;;;18.60;74.51;98147.86;2210300;81;21030;-65
2021/08/07 06:48:07;;;;;;;19.73;5.80;;;;;;;18.88;75.13;98150.30;2210216;81;21459;-69
2021/08/07 06:51:08;;;;;;;17.60;5.35;;;;;;;18.99;74.15;98151.80;2210386;81;20946;-60
2021/08/07 06:54:08;;;;;;;16.90;5.47;;;;;;;18.96;71.40;98152.13;2210443;81;21028;-58
2021/08/07 06:57:09;;;;;;;18.77;5.85;;;;;;;18.96;72.65;98158.27;2210512;81;21040;-69
2021/08/07 07:00:11;;;;;;;17.95;5.55;;;;;;;19.08;73.54;98164.13;2210329;81;20973;-61
2021/08/07 07:03:11;;;;;;;17.32;6.10;;;;;;;19.06;71.74;98155.47;2210676;81;20982;-62
2021/08/07 07:06:12;;;;;;;14.50;5.03;;;;;;;19.16;73.33;98153.48;2210180;81;21024;-66
2021/08/07 07:09:12;;;;;;;15.40;4.67;;;;;;;19.34;72.68;98170.62;2210319;81;20961;-68
2021/08/07 07:12:13;;;;;;;19.40;5.42;;;;;;;19.41;70.49;98175.27;2210118;81;21511;-66
2021/08/07 07:15:14;;;;;;;17.00;5.58;;;;;;;19.55;71.36;98169.28;2210104;81;21009;-62
2021/08/07 07:18:15;;;;;;;16.07;5.25;;;;;;;19.84;73.12;98168.80;2210150;81;20995;-59
2021/08/07 07:21:15;;;;;;;16.93;5.00;;;;;;;20.12;71.40;98176.89;2210408;81;20972;-60
2021/08/07 07:24:16;;;;;;;15.00;4.62;;;;;;;20.20;71.31;98165.72;2210241;81;20956;-64
2021/08/07 07:27:16;;;;;;;15.23;4.92;;;;;;;20.34;69.18;98173.50;2210185;81;21280;-62
2021/08/07 07:30:17;;;;;;;15.63;4.70;;;;;;;20.51;70.18;98164.92;2215371;80;21024;-66
2021/08/07 07:33:17;;;;;;;14.03;4.55;;;;;;;20.53;68.21;98172.25;2220353;80;21468;-63
2021/08/07 07:36:18;;;;;;;15.13;4.50;;;;;;;20.59;68.35;98174.22;2220455;80;21037;-63
2021/08/07 07:39:18;;;;;;;11.75;3.95;;;;;;;20.71;70.78;98168.02;2220693;80;20944;-64
2021/08/07 07:42:19;;;;;;;14.35;4.47;;;;;;;20.75;69.09;98159.19;2220666;80;20955;-69
2021/08/07 07:45:19;;;;;;;13.05;4.37;;;;;;;20.93;68.54;98160.23;2220524;80;20952;-68
2021/08/07 07:48:20;;;;;;;11.55;3.80;;;;;;;20.90;67.86;98159.26;2220515;80;20980;-60
2021/08/07 07:51:20;;;;;;;12.60;4.15;;;;;;;21.09;67.17;98161.48;2220431;80;21528;-60
2021/08/07 07:54:20;;;;;;;12.90;4.22;;;;;;;21.03;63.65;98178.67;2220389;80;20965;-63
2021/08/07 07:57:21;;;;;;;14.68;4.25;;;;;;;21.00;67.49;98175.84;2220496;80;20945;-64
2021/08/07 08:00:21;;;;;;;14.45;4.28;;;;;;;21.06;65.59;98188.98;2220415;80;21007;-64
2021/08/07 08:03:22;;;;;;;15.75;4.40;;;;;;;21.26;67.83;98174.68;2220340;80;20984;-68
2021/08/07 08:06:24;;;;;;;12.83;4.50;;;;;;;21.38;64.67;98171.12;2220742;80;21080;-67
2021/08/07 08:09:24;;;;;;;14.80;4.75;;;;;;;21.07;63.33;98186.65;2221086;80;21639;-71
2021/08/07 08:12:25;;;;;;;13.60;4.17;;;;;;;20.88;64.45;98187.42;2220910;80;21028;-65
2021/08/07 08:15:26;;;;;;;13.38;4.37;;;;;;;21.10;64.70;98191.62;2220641;80;21064;-64
2021/08/07 08:18:26;;;;;;;13.45;4.30;;;;;;;21.36;64.29;98189.12;2221238;80;21000;-60
2021/08/07 08:21:27;;;;;;;10.20;3.60;;;;;;;21.61;64.96;98193.28;2221123;80;20988;-65
2021/08/07 08:24:27;;;;;;;12.67;3.93;;;;;;;21.79;61.66;98190.79;2220939;80;20965;-66
2021/08/07 08:27:27;;;;;;;13.43;4.40;;;;;;;21.63;62.35;98193.10;2220690;80;20980;-65
2021/08/07 08:30:28;;;;;;;17.93;4.57;;;;;;;21.40;63.01;98200.58;2215838;80;21473;-60
2021/08/07 08:33:29;;;;;;;11.12;4.08;;;;;;;21.71;64.98;98194.37;2210551;81;20980;-61
2021/08/07 08:36:29;;;;;;;11.03;3.65;;;;;;;22.08;63.14;98178.48;2210688;81;21025;-68
2021/08/07 08:39:30;;;;;;;12.27;4.07;;;;;;;21.74;61.09;98196.67;2210724;81;20957;-67
2021/08/07 08:42:31;;;;;;;12.60;4.00;;;;;;;21.88;64.35;98199.06;2210597;81;20972;-65
2021/08/07 08:45:31;;;;;;;10.50;3.45;;;;;;;22.18;61.97;98218.28;2210656;81;21496;-68
2021/08/07 08:48:32;;;;;;;10.87;3.20;;;;;;;22.05;60.20;98214.91;2210700;81;21521;-69
2021/08/07 08:51:33;;;;;;;11.17;3.47;;;;;;;22.05;60.20;98214.91;2210774;81;21020;-64
2021/08/07 08:54:33;;;;;;;13.60;3.70;;;;;;;21.75;61.28;98219.69;2210772;81;21076;-68
2021/08/07 08:57:34;;;;;;;9.40;3.50;;;;;;;21.91;62.98;98204.03;2210649;81;21020;-66
2021/08/07 09:00:35;;;;;;;13.22;3.30;;;;;;;21.89;61.54;98214.05;2210393;81;20993;-66
2021/08/07 09:03:36;;;;;;;10.73;3.50;;;;;;;22.26;60.90;98212.34;2210376;81;21480;-64
2021/08/07 09:06:36;;;;;;;14.40;3.17;;;;;;;22.67;59.35;98211.09;2210636;81;21503;-65
2021/08/07 09:09:36;;;;;;;11.53;3.50;;;;;;;22.84;59.40;98211.20;2210675;81;21072;-64
2021/08/07 09:12:37;;;;;;;9.23;2.90;;;;;;;22.72;59.42;98211.34;2210669;81;21020;-66
2021/08/07 09:15:38;;;;;;;6.37;2.70;;;;;;;22.77;59.25;98210.30;2210354;81;21564;-65
2021/08/07 09:18:39;;;;;;;6.57;2.87;;;;;;;22.93;58.62;98207.06;2210644;81;21020;-69
2021/08/07 09:21:39;;;;;;;8.30;2.73;;;;;;;23.11;56.46;98216.05;2210456;81;21091;-62
2021/08/07 09:24:40;;;;;;;6.23;2.70;;;;;;;23.42;57.28;98210.89;2210207;81;21028;-65
2021/08/07 09:27:40;;;;;;;5.83;2.43;;;;;;;23.88;56.70;98213.20;2210526;81;21522;-68
2021/08/07 09:30:42;;;;;;;4.78;2.40;;;;;;;24.19;55.43;98206.61;2210024;80;21092;-64
2021/08/07 09:33:42;;;;;;;6.53;2.47;;;;;;;24.40;56.09;98201.69;2210532;81;21012;-65
2021/08/07 09:36:43;;;;;;;9.60;3.03;;;;;;;24.46;53.64;98206.25;2210722;81;21084;-66
2021/08/07 09:39:45;;;;;;;11.37;2.80;;;;;;;24.41;52.46;98219.44;2210848;81;20977;-69
2021/08/07 09:42:45;;;;;;;6.60;2.47;;;;;;;24.13;56.30;98224.29;2189008;81;21480;-69
2021/08/07 09:45:46;;;;;;;9.20;2.50;;;;;;;23.78;55.07;98228.22;2210581;81;21353;-70
2021/08/07 09:48:46;;;;;;;5.93;2.37;;;;;;;23.46;54.11;98226.89;2208848;81;21092;-63
2021/08/07 09:51:47;;;;;;;6.43;2.30;;;;;;;23.24;54.43;98232.23;2208353;81;21063;-66
2021/08/07 09:54:47;;;;;;;10.83;2.57;;;;;;;23.55;53.52;98240.97;2209048;81;20965;-68
2021/08/07 09:57:48;;;;;;;9.43;3.00;;;;;;;23.51;54.24;98235.19;2209375;81;21595;-70
2021/08/07 10:00:48;;;;;;;8.30;2.57;;;;;;;23.33;53.11;98236.95;2209860;81;21432;-67
2021/08/07 10:03:49;;;;;;;9.70;2.77;;;;;;;23.05;53.71;98237.66;2210123;81;20984;-70
2021/08/07 10:06:49;;;;;;;6.07;2.50;;;;;;;23.39;54.18;98237.55;2210723;81;20973;-69
2021/08/07 10:09:50;;;;;;;6.73;2.50;;;;;;;23.84;51.35;98250.20;2210734;81;21055;-62
2021/08/07 10:12:51;;;;;;;5.20;2.40;;;;;;;23.33;52.35;98240.96;2210156;81;21554;-69
2021/08/07 10:15:52;;;;;;;9.83;2.95;;;;;;;23.44;53.54;98238.31;2210168;81;21566;-69
2021/08/07 10:18:53;;;;;;;8.43;2.93;;;;;;;24.07;54.34;98235.80;2210260;81;21024;-65
2021/08/07 10:21:53;;;;;;;5.77;2.37;;;;;;;24.65;51.44;98228.88;2210710;81;20969;-69
2021/08/07 10:24:53;;;;;;;6.17;2.40;;;;;;;24.51;50.13;98242.68;2210565;81;20993;-70
2021/08/07 10:27:54;;;;;;;6.30;2.70;;;;;;;23.92;51.68;98243.09;2210587;81;20925;-70
2021/08/07 10:30:54;;;;;;;7.83;2.60;;;;;;;24.27;52.27;98233.25;2210341;81;21480;-70
2021/08/07 10:33:55;;;;;;;7.73;2.57;;;;;;;24.96;52.74;98244.16;2210511;81;21503;-62
2021/08/07 10:36:55;;;;;;;6.40;2.63;;;;;;;24.81;49.40;98244.29;2210420;81;20953;-69
2021/08/07 10:39:56;;;;;;;7.37;2.50;;;;;;;24.86;48.21;98258.75;2210745;81;20973;-69
2021/08/07 10:42:56;;;;;;;9.90;2.90;;;;;;;24.82;49.78;98239.25;2210588;81;21004;-68
2021/08/07 10:45:57;;;;;;;5.57;2.50;;;;;;;24.81;48.04;98255.86;2210488;81;21055;-70
2021/08/07 10:48:57;;;;;;;8.80;2.90;;;;;;;24.82;48.26;98254.81;2210482;81;21040;-70
2021/08/07 10:51:58;;;;;;;5.93;2.37;;;;;;;25.33;48.49;98249.57;2210532;81;20997;-67
2021/08/07 10:54:59;;;;;;;4.97;2.47;;;;;;;25.51;46.59;98242.27;2210308;81;21468;-70
2021/08/07 10:57:59;;;;;;;10.57;2.50;;;;;;;25.74;45.52;98245.89;2210435;81;20953;-70
2021/08/07 11:00:59;;;;;;;7.90;2.40;;;;;;;25.83;46.07;98242.52;2210813;81;20975;-66
2021/08/07 11:04:00;;;;;;;8.43;2.93;;;;;;;25.80;46.76;98234.84;2210659;81;20976;-69
2021/08/07 11:07:00;;;;;;;5.73;2.53;;;;;;;25.92;47.91;98229.18;2210541;81;20945;-67
2021/08/07 11:10:01;;;;;;;10.07;3.07;;;;;;;26.37;48.87;98223.69;2210548;81;20970;-69
2021/08/07 11:13:02;;;;;;;9.43;2.77;;;;;;;26.69;43.95;98230.55;2210391;81;21464;-70
2021/08/07 11:16:02;;;;;;;8.40;2.40;;;;;;;26.76;47.75;98227.31;2210555;81;21040;-65
2021/08/07 11:19:03;;;;;;;7.37;2.60;;;;;;;27.06;42.63;98243.73;2210458;81;21012;-61
2021/08/07 11:22:03;;;;;;;8.07;2.80;;;;;;;26.70;43.15;98241.09;2210586;81;20992;-70
2021/08/07 11:25:04;;;;;;;7.43;2.40;;;;;;;26.55;46.22;98231.91;2210549;81;21483;-68
2021/08/07 11:28:06;;;;;;;5.40;2.30;;;;;;;26.66;46.36;98237.66;2210437;81;20945;-70
2021/08/07 11:31:06;;;;;;;6.55;2.50;;;;;;;26.85;43.44;98245.38;2210221;81;21069;-63
2021/08/07 11:34:07;;;;;;;8.57;2.67;;;;;;;26.89;46.06;98230.47;2210471;81;21008;-66
2021/08/07 11:37:07;;;;;;;5.90;2.40;;;;;;;27.38;45.34;98223.61;2210504;81;20969;-68
2021/08/07 11:40:08;;;;;;;5.87;2.27;;;;;;;27.61;40.35;98235.18;2210576;81;21420;-68
2021/08/07 11:43:08;;;;;;;6.53;2.50;;;;;;;27.39;42.96;98213.68;2210168;81;21530;-67
2021/08/07 11:46:08;;;;;;;4.70;2.30;;;;;;;26.72;40.29;98237.69;2210500;81;20965;-67
2021/08/07 11:49:09;;;;;;;7.97;3.03;;;;;;;26.92;42.69;98217.43;2210757;81;20961;-69
2021/08/07 11:52:10;;;;;;;5.70;2.60;;;;;;;26.90;40.77;98228.09;2210810;81;21055;-64
2021/08/07 11:55:10;;;;;;;7.67;2.40;;;;;;;26.80;42.55;98229.89;2210855;81;21035;-65
2021/08/07 11:58:11;;;;;;;5.80;2.50;;;;;;;26.76;44.56;98217.37;2210805;81;21029;-64
2021/08/07 12:01:12;;;;;;;5.83;2.05;;;;;;;27.21;42.84;98217.05;2210407;81;21590;-69
2021/08/07 12:04:13;;;;;;;5.80;2.10;;;;;;;27.15;40.92;98222.78;2210522;81;21522;-69
2021/08/07 12:07:14;;;;;;;4.73;2.10;;;;;;;27.12;43.91;98221.38;2210582;81;21021;-66
2021/08/07 12:10:15;;;;;;;6.05;2.45;;;;;;;27.52;41.70;98227.05;2210400;81;21032;-64
2021/08/07 12:13:15;;;;;;;6.20;2.17;;;;;;;27.77;43.54;98222.19;2210967;81;20988;-67
2021/08/07 12:16:16;;;;;;;4.95;2.27;;;;;;;27.93;38.65;98228.39;2210078;81;21013;-66
2021/08/07 12:19:17;;;;;;;6.20;2.20;;;;;;;27.93;42.46;98223.00;2210708;81;21033;-66
2021/08/07 12:22:17;;;;;;;6.47;2.57;;;;;;;27.85;41.44;98232.70;2210709;81;21540;-61
2021/08/07 12:25:18;;;;;;;10.23;2.90;;;;;;;28.19;40.37;98235.97;2210988;81;21020;-65
2021/08/07 12:28:18;;;;;;;8.30;2.37;;;;;;;28.65;42.12;98230.64;2210849;81;21072;-66
2021/08/07 12:31:18;;;;;;;5.73;2.10;;;;;;;28.77;40.97;98224.48;2215148;80;21012;-65
2021/08/07 12:34:19;;;;;;;6.67;2.50;;;;;;;28.88;40.70;98227.78;2221225;80;20984;-66
2021/08/07 12:37:20;;;;;;;9.90;2.40;;;;;;;29.02;40.96;98220.31;2220777;80;20992;-64
2021/08/07 12:40:21;;;;;;;4.85;2.25;;;;;;;28.79;36.59;98228.61;2220863;80;21051;-66
2021/08/07 12:43:21;;;;;;;7.10;2.30;;;;;;;28.20;37.80;98226.81;2220805;80;20972;-64
2021/08/07 12:46:22;;;;;;;8.37;2.60;;;;;;;27.87;39.26;98213.62;2221030;80;20980;-67
2021/08/07 12:49:22;;;;;;;4.67;2.20;;;;;;;28.42;40.59;98208.89;2221079;80;20976;-66
2021/08/07 12:52:23;;;;;;;6.07;2.27;;;;;;;28.21;39.78;98214.99;2221144;80;21019;-65
2021/08/07 12:55:23;;;;;;;8.10;2.57;;;;;;;27.85;38.82;98200.91;2221266;80;21012;-69
2021/08/07 12:58:24;;;;;;;5.93;2.70;;;;;;;27.94;37.60;98211.69;2220999;80;20941;-64
2021/08/07 13:01:24;;;;;;;7.40;2.47;;;;;;;28.09;40.83;98210.86;2220932;80;20999;-63
2021/08/07 13:04:26;;;;;;;9.48;2.65;;;;;;;28.37;37.98;98210.89;2220812;80;21048;-65
2021/08/07 13:07:26;;;;;;;4.40;2.17;;;;;;;28.10;39.23;98215.22;2220514;80;21012;-63
2021/08/07 13:10:29;;;;;;;7.10;2.63;;;;;;;28.12;38.80;98223.08;2220972;80;21537;-68
2021/08/07 13:13:29;;;;;;;7.22;2.62;;;;;;;28.28;38.26;98218.45;2190469;80;21024;-65
2021/08/07 13:16:30;;;;;;;7.28;2.22;;;;;;;28.38;39.26;98209.84;2220848;80;21048;-64
2021/08/07 13:19:31;;;;;;;11.13;2.97;;;;;;;27.77;37.94;98213.61;2220578;80;21001;-61
2021/08/07 13:22:32;;;;;;;6.55;2.50;;;;;;;27.55;41.16;98216.36;2220764;80;21062;-60
2021/08/07 13:25:32;;;;;;;4.70;2.37;;;;;;;27.92;37.42;98220.53;2220871;80;21539;-66
2021/08/07 13:28:33;;;;;;;8.93;2.93;;;;;;;27.49;39.73;98218.88;2220748;80;21548;-60
2021/08/07 13:31:33;;;;;;;7.13;2.63;;;;;;;27.12;39.90;98221.88;2220778;80;21019;-60
2021/08/07 13:34:34;;;;;;;5.37;2.43;;;;;;;26.57;39.73;98219.06;2221006;80;20980;-59
2021/08/07 13:37:34;;;;;;;8.97;2.70;;;;;;;26.65;41.92;98211.30;2221041;80;20967;-60
2021/08/07 13:40:35;;;;;;;8.83;2.80;;;;;;;27.16;40.84;98206.95;2220929;80;20956;-66
2021/08/07 13:43:35;;;;;;;7.63;2.50;;;;;;;27.38;40.00;98197.21;2220928;80;21507;-63
2021/08/07 13:46:36;;;;;;;6.33;2.50;;;;;;;26.93;38.26;98200.76;2220882;80;21008;-59
2021/08/07 13:49:36;;;;;;;14.83;4.53;;;;;;;26.43;40.13;98185.20;2220732;80;21076;-60
2021/08/07 13:52:37;;;;;;;5.87;2.60;;;;;;;27.17;41.36;98195.65;2220981;80;20995;-65
2021/08/07 13:55:37;;;;;;;6.47;2.70;;;;;;;27.73;38.78;98198.92;2221062;80;20941;-63
2021/08/07 13:58:38;;;;;;;6.93;2.60;;;;;;;28.00;37.79;98197.36;2221043;80;20992;-63
2021/08/07 14:01:38;;;;;;;5.37;2.53;;;;;;;28.32;38.81;98203.47;2220945;80;20980;-60
2021/08/07 14:04:38;;;;;;;6.90;2.60;;;;;;;28.32;36.42;98206.17;2220850;80;22196;-70
2021/08/07 14:07:39;;;;;;;8.63;2.57;;;;;;;28.24;36.58;98208.34;2220749;80;21594;-64